Pineville, LA (71360)

4:37 AM CST on February 08, 2016 (GMT -0600)
Rigolette | | Change Station
CLOSE
Current Station
Personal Weather Station
Location: Pineville, LA
Elevation: 98 ft
Nearby Weather Stations
Active Advisory: Wind Advisory

Elev 98 ft 31.38 °N, 92.47 °W | Updated 2 seconds ago

Clear
Clear
39.1 °F
Feels Like 39 °F
N
0.0
Wind Variable Wind from West
Gusts 1.0 mph

Today
High -- | Low -- °F
--% Chance of Precip.
Yesterday
High -- | Low -- °F
Precip. -- in
Pressure 30.10 in
Visibility 10.0 miles
Clouds Clear
Windchill 39 °F
Dew Point 37 °F
Humidity 91%
Rainfall 0.00 in
Snow Depth Not available.
6:57 AM 5:50 PM
Waning Crescent, 0% visible
METAR KESF 080953Z AUTO 27006KT 10SM CLR 08/04 A3010 RMK AO2 SLP191 T00830039
Pressure 30.10 in
Visibility 10.0 miles
Clouds Clear
Windchill 39 °F
Dew Point 37 °F
Humidity 91%
Rainfall 0.00 in
Snow Depth Not available.
6:57 AM 5:50 PM
Waning Crescent, 0% visible
METAR KESF 080953Z AUTO 27006KT 10SM CLR 08/04 A3010 RMK AO2 SLP191 T00830039

10-Day Weather Forecast

Almanac

Astronomy

Feb. 08, 2016 Rise Set
Actual Time
Civil Twilight
Nautical Twilight
Astronomical Twilight
Moon
Length of Visible Light
Length of Day
Tomorrow will be .
, % of the Moon is Illuminated

Today's Extremes

State Highs State Lows

Community

WunderPhotos

Upload Photos

1,891,420 photos uploaded!

WunderBlog® & News

Nearby

Air Quality

  Air Quality AQ Index Pollutant
Not available.

Snow Depth

Station Depth Elevation

Earthquake Activity

City Distance Mag. Time & Date
Minimum magnitude displayed is 2.5.

Coastal Water Temperatures

Place Temperature

Stations

Nearby Weather Stations

Station Location Temp. Windchill Dew Point Humidity Wind Precip. Elev Updated Type
                   

Watches & Warnings

Wind Advisory
Issued: 3:51 AM CST Feb. 8, 2016 – National Weather Service

... Wind Advisory in effect from 10 am this morning to 6 PM CST
this evening...

The National Weather Service in Lake Charles has issued a Wind
Advisory... which is in effect from 10 am this morning to 6 PM CST
this evening.

* Timing... late morning through sunset.

* Winds... sustained 20 to 25 mph... with gusts above 25 to 30
mph.

* Impacts... vehicles and high profile vehicles should use
caution as sudden gusts can cause loss of control. Loose lawn
furniture or trash cans may be blow around.

Precautionary/preparedness actions...

A Wind Advisory means that winds of 20 mph are expected. Winds
this strong can make driving difficult... especially for high
profile vehicles. Use extra caution.